KMEI/MEI METAR and TAF weather

Enter ICAO airport designator
Station Type Date Time Source
KMEI METAR 2021/09/25 03:58 UTC NOAA

KMEI 250358Z AUTO 00000KT 10SM CLR 13/12 A3010 RMK AO2 SLP189 T01330117


Station Type Date Time Source
KMEI Decoded METAR 2021/09/25 03:58 UTC NOAA

MERIDIAN KEY FIELD, MS, United States (KMEI) 32-20N 088-45W 89M
Sep 24, 2021 - 11:58 PM EDT / 2021.09.25 0358 UTC
Wind: Calm:0
Visibility: 10 mile(s):0
Sky conditions: clear
Temperature: 55.9 F (13.3 C)
Dew Point: 53.1 F (11.7 C)
Relative Humidity: 90%
Pressure (altimeter): 30.1 in. Hg (1019 hPa)
ob: KMEI 250358Z AUTO 00000KT 10SM CLR 13/12 A3010 RMK AO2 SLP189 T01330117
cycle: 4

Station Type Date Time Source
KMEI TAF 2021/09/24 18:22 UTC NOAA

TAF KMEI 241720Z 2418/2518 05005KT P6SM FEW250

Example: see airport list